METAR és
SPECI
METAR LHBP 251500Z VRB03KT CAVOK 10/06 Q1025 NOSIG=
METAR LHBP 251430Z VRB03KT CAVOK 10/06 Q1025 NOSIG=
METAR LHBP 251400Z 03004KT 360V070 CAVOK 10/05 Q1025 NOSIG=
METAR LHBP 251330Z 06004KT CAVOK 10/05 Q1025 NOSIG=
METAR LHBP 251300Z 01004KT CAVOK 10/06 Q1025 NOSIG=
METAR LHBP 251230Z 07005KT 050V120 CAVOK 10/05 Q1025 NOSIG=
TAF
TAF LHBP 251100Z 2512/2612 07006KT 9999 SCT025 SCT065 TEMPO 2513/2518 CAVOK BECMG 2516/2519 VRB02KT BECMG 2519/2522 5000 BR BKN020 TEMPO 2600/2607 2000 BR BKN010 BECMG 2607/2610 07005KT 9999 NSW SCT020=
GAMET
FAHU41 LHBM 251100
LHCC GAMET VALID 251200/251800 LHBP-
BUDAPEST FIR BLW FL100
SECN 1
SIG CLD: 12/14 BKN/OVC 800-1200/4000 FT AGL W OF E01715
SIGMETS APPLICABLE: NIL=
OMSZ: 2014. október 25. 12:38 (10:38  UTC)
[FAHU41]
AIRMET
Nincs érvényes távirat! 
WAHU41 LHBM 160545
LHCC AIRMET 01 VALID 160545/160800 LHBP-
LHCC BUDAPEST FIR BKN/OVC CLD 200-500/1000 FT AGL WKN=
SIGMET
Nincs érvényes távirat! 
WSHU31 LHBM 241840
LHCC SIGMET 01 VALID 241840/242140 LHBP-
LHCC BUDAPEST FIR SEV ICE FCST W OF LINE N4557 E01730 -
N4831 E02117 6000FT/FL100 MOV NW WKN=
SIGMET
Vulkáni hamufelhő
Nincs érvényes távirat! 
WVHU31 LHBM 271515 CCA
LHCC SIGMET 03 VALID 271515/271800 LHBP-
LHCC BUDAPEST FIR EXERCISE VOLCEX12/01
CNL VA SIGMET 02 271200/271800
EXERCISE EXERCISE EXERCISE VOLCEX12/01=